»·PEaware :: ASA103 KSTS-KSEA

ASA103 :: KSTS-KSEA

FLIGHT INFORMATION

Flight Status: Arrived
Operator:
Alaska Airlines
More flights by this operator :: More flights under this callsign
Pilot: Andrew C. (28419)
Aircraft: BOEING 737-800
(B738)
More flights by this aircraft type
Origin: KSTS Sonoma Co
United States
Destination: KSEA Seattle-Tacoma Intl
United States
More flights between these airports :: More routes between these airports
Route: +STS ENI BTG HAWKZ7
File this flight plan on PilotEdge
Remarks: RMK / SIMBRIEF
Altitude:
(Current/Filed)
36,000ft
Speed:
(Current/Filed)
461kts
Departed: 15-Jun-20 04:15 PM
Arrived: 15-Jun-20 05:52 PM
Distance/Time
Traveled:
537nm/1:36
Distance/Time
To Go:
Arrived

Flight Plot

Page will automatically refresh every two minutes.

Flight plan parsing failed; only flown route is shown


Map Options




Map Legend


Flown Route
Filed Route
Departure Airport
Arrival Airport
Navaid (VOR, NDB)
Fix

Horizontal Profiles

Position Reports

Time Latitude Longitude Heading Altitude Ground
Speed
15-Jun-20 15:47 38.510798 -122.806756 112 122ft 0kts
15-Jun-20 15:48 38.510798 -122.806756 112 122ft 0kts
15-Jun-20 15:49 38.510798 -122.806756 112 122ft 0kts
15-Jun-20 15:50 38.510798 -122.806756 112 122ft 0kts
15-Jun-20 15:51 38.510798 -122.806756 112 122ft 0kts
15-Jun-20 15:52 38.510798 -122.806756 112 122ft 0kts
15-Jun-20 15:53 38.510798 -122.806756 112 122ft 0kts
15-Jun-20 15:54 38.510798 -122.806756 112 122ft 0kts
15-Jun-20 15:56 38.510798 -122.806756 112 122ft 0kts
15-Jun-20 15:57 38.510798 -122.806756 112 122ft 0kts
15-Jun-20 15:58 38.510798 -122.806756 112 122ft 0kts
15-Jun-20 15:59 38.510798 -122.806756 112 122ft 0kts
15-Jun-20 16:00 38.510798 -122.806756 112 122ft 0kts
15-Jun-20 16:01 38.510798 -122.806756 112 122ft 0kts
15-Jun-20 16:02 38.510798 -122.806756 112 122ft 0kts
15-Jun-20 16:03 38.510798 -122.806756 112 122ft 0kts
15-Jun-20 16:04 38.510798 -122.806756 112 122ft 0kts
15-Jun-20 16:05 38.510808 -122.806785 112 122ft 2kts
15-Jun-20 16:06 38.511008 -122.807494 82 122ft 2kts
15-Jun-20 16:07 38.511179 -122.808024 160 122ft 2kts
15-Jun-20 16:08 38.511237 -122.808054 156 122ft 0kts
15-Jun-20 16:09 38.510947 -122.808253 223 122ft 5kts
15-Jun-20 16:10 38.509371 -122.807848 154 122ft 6kts
15-Jun-20 16:11 38.507510 -122.806812 160 122ft 7kts
15-Jun-20 16:11 38.505437 -122.805689 154 122ft 11kts
15-Jun-20 16:13 38.502866 -122.804627 225 122ft 0kts
15-Jun-20 16:13 38.502866 -122.804627 225 122ft 0kts
15-Jun-20 16:15 38.504611 -122.806982 337 122ft 75kts
15-Jun-20 16:16 38.541309 -122.835850 298 1780ft 206kts
15-Jun-20 16:16 38.517382 -122.886631 187 4143ft 274kts
15-Jun-20 16:18 38.428218 -122.895271 212 8451ft 284kts
15-Jun-20 16:18 38.377232 -122.948270 247 10708ft 305kts
15-Jun-20 16:19 38.421672 -123.029164 353 13373ft 358kts
15-Jun-20 16:20 38.518995 -122.979362 20 16103ft 392kts
15-Jun-20 16:21 38.623338 -122.968992 345 18611ft 380kts
15-Jun-20 16:22 38.724315 -123.003711 325 21108ft 371kts
15-Jun-20 16:23 38.811485 -123.073693 320 23347ft 373kts
15-Jun-20 16:24 38.899188 -123.146265 319 25462ft 376kts
15-Jun-20 16:25 38.987730 -123.219668 319 27311ft 380kts
15-Jun-20 16:26 39.090645 -123.263622 347 28927ft 424kts
15-Jun-20 16:27 39.210840 -123.258390 350 30501ft 434kts
15-Jun-20 16:28 39.330503 -123.248412 350 32297ft 427kts
15-Jun-20 16:29 39.448632 -123.237720 349 33980ft 419kts
15-Jun-20 16:30 39.564556 -123.227042 349 35358ft 415kts
15-Jun-20 16:31 39.679842 -123.216490 349 36106ft 419kts
15-Jun-20 16:32 39.795232 -123.205657 349 36119ft 413kts
15-Jun-20 16:33 39.910947 -123.194758 349 36118ft 414kts
15-Jun-20 16:34 40.026856 -123.183831 349 36118ft 415kts
15-Jun-20 16:35 40.142861 -123.172939 349 36118ft 418kts
15-Jun-20 16:36 40.260238 -123.161762 349 36118ft 417kts
15-Jun-20 16:37 40.376814 -123.150668 349 36118ft 418kts
15-Jun-20 16:38 40.494066 -123.139485 350 36118ft 419kts
15-Jun-20 16:39 40.612274 -123.128190 350 36118ft 422kts
15-Jun-20 16:40 40.730453 -123.116809 350 36126ft 422kts
15-Jun-20 16:41 40.848798 -123.105404 351 36132ft 423kts
15-Jun-20 16:42 40.967910 -123.093896 351 36128ft 426kts
15-Jun-20 16:43 41.086841 -123.082322 352 36123ft 427kts
15-Jun-20 16:44 41.204701 -123.070822 352 36119ft 427kts
15-Jun-20 16:45 41.324284 -123.059121 352 36117ft 428kts
15-Jun-20 16:46 41.443664 -123.047398 353 36126ft 429kts
15-Jun-20 16:47 41.563498 -123.035647 353 36123ft 429kts
15-Jun-20 16:48 41.684073 -123.023703 353 36119ft 432kts
15-Jun-20 16:49 41.805194 -123.011635 353 36114ft 431kts
15-Jun-20 16:50 41.926292 -122.999554 353 36110ft 432kts
15-Jun-20 16:51 42.047034 -122.987660 355 36123ft 438kts
15-Jun-20 16:52 42.169211 -122.975276 355 36128ft 439kts
15-Jun-20 16:53 42.291431 -122.962910 355 36126ft 441kts
15-Jun-20 16:54 42.415175 -122.950360 356 36123ft 441kts
15-Jun-20 16:55 42.537968 -122.937877 356 36121ft 441kts
15-Jun-20 16:56 42.661792 -122.925382 356 36118ft 442kts
15-Jun-20 16:57 42.784034 -122.912834 356 36115ft 442kts
15-Jun-20 16:58 42.907052 -122.900166 356 36113ft 444kts
15-Jun-20 16:59 43.030645 -122.887398 356 36110ft 446kts
15-Jun-20 17:00 43.155043 -122.874506 357 36115ft 447kts
15-Jun-20 17:01 43.279811 -122.861520 357 36119ft 447kts
15-Jun-20 17:02 43.405089 -122.848441 357 36118ft 448kts
15-Jun-20 17:03 43.530081 -122.835332 357 36119ft 450kts
15-Jun-20 17:04 43.656113 -122.821996 357 36118ft 451kts
15-Jun-20 17:05 43.782186 -122.808668 358 36119ft 452kts
15-Jun-20 17:06 43.908605 -122.795183 358 36118ft 453kts
15-Jun-20 17:07 44.034803 -122.781731 359 36119ft 455kts
15-Jun-20 17:08 44.160563 -122.768236 359 36118ft 457kts
15-Jun-20 17:09 44.288019 -122.754497 359 36118ft 457kts
15-Jun-20 17:10 44.415715 -122.740697 359 36101ft 457kts
15-Jun-20 17:11 44.543403 -122.726840 359 36082ft 458kts
15-Jun-20 17:12 44.671162 -122.712902 359 36082ft 458kts
15-Jun-20 17:13 44.798348 -122.698960 359 36082ft 459kts
15-Jun-20 17:14 44.925357 -122.684990 359 36082ft 460kts
15-Jun-20 17:15 45.052738 -122.670911 359 36078ft 460kts
15-Jun-20 17:16 45.178989 -122.656898 0 36073ft 461kts
15-Jun-20 17:17 45.306683 -122.642661 0 36072ft 462kts
15-Jun-20 17:18 45.435044 -122.628287 0 36073ft 463kts
15-Jun-20 17:19 45.563924 -122.613779 0 36067ft 460kts
15-Jun-20 17:20 45.691874 -122.599631 358 35807ft 465kts
15-Jun-20 17:21 45.820669 -122.610870 346 33957ft 465kts
15-Jun-20 17:22 45.947874 -122.641356 346 31213ft 460kts
15-Jun-20 17:23 46.071531 -122.671807 347 29300ft 438kts
15-Jun-20 17:24 46.183126 -122.695450 349 27490ft 433kts
15-Jun-20 17:25 46.303182 -122.718720 350 25478ft 424kts
15-Jun-20 17:26 46.419805 -122.725494 354 23501ft 407kts
15-Jun-20 17:27 46.531118 -122.729738 355 21561ft 390kts
15-Jun-20 17:28 46.638382 -122.733670 355 19622ft 376kts
15-Jun-20 17:29 46.741682 -122.735309 3 17899ft 360kts
15-Jun-20 17:30 46.831987 -122.681348 34 16368ft 352kts
15-Jun-20 17:31 46.909223 -122.594546 36 14732ft 342kts
15-Jun-20 17:32 46.991014 -122.538764 14 13638ft 319kts
15-Jun-20 17:33 47.074707 -122.502643 10 12207ft 314kts
15-Jun-20 17:34 47.156516 -122.486218 4 10835ft 308kts
15-Jun-20 17:35 47.238039 -122.472689 2 9757ft 292kts
15-Jun-20 17:36 47.318037 -122.460604 2 8392ft 291kts
15-Jun-20 17:37 47.396200 -122.455055 356 7374ft 277kts
15-Jun-20 17:38 47.472152 -122.455389 356 6231ft 264kts
15-Jun-20 17:39 47.541075 -122.455732 354 5999ft 248kts
15-Jun-20 17:40 47.609886 -122.456030 359 5997ft 243kts
15-Jun-20 17:41 47.677905 -122.453609 359 5006ft 245kts
15-Jun-20 17:42 47.744807 -122.449095 24 4012ft 233kts
15-Jun-20 17:43 47.757552 -122.372112 134 4004ft 212kts
15-Jun-20 17:44 47.714598 -122.319277 144 3992ft 177kts
15-Jun-20 17:45 47.671364 -122.305864 180 4002ft 158kts
15-Jun-20 17:46 47.627457 -122.305888 181 3656ft 161kts
15-Jun-20 17:47 47.583423 -122.306447 180 2827ft 158kts
15-Jun-20 17:48 47.543042 -122.306815 180 2032ft 134kts
15-Jun-20 17:50 47.505746 -122.307140 183 1303ft 131kts
15-Jun-20 17:51 47.469997 -122.307694 184 625ft 130kts
15-Jun-20 17:52 47.450101 -122.306944 94 443ft 13kts
15-Jun-20 17:53 47.450090 -122.305310 89 443ft 11kts
15-Jun-20 17:54 47.449884 -122.302008 129 443ft 1kts
15-Jun-20 17:55 47.449425 -122.301644 195 443ft 4kts
15-Jun-20 17:56 47.449055 -122.301997 219 443ft 0kts
15-Jun-20 17:57 47.449055 -122.301997 219 443ft 0kts

Navigation Log

Ident Type
Flight plan parsing failed, navigation log unavailable